Terminal Aerodrome Forecast
Issued by NWS Central Illinois

Home | Current Version | Previous Version | Text Only | Print | Product List | Glossary On
Versions: 1 2 3 4 5 6 7 8 9 10 11 12 13 14 15 16
000
FTUS43 KILX 280520
TAFSPI
TAF
KSPI 280520Z 2806/2906 16007KT P6SM FEW250
     FM281300 17013KT P6SM SCT200
     FM281600 18015G25KT P6SM BKN250
     FM282000 18017G27KT P6SM SCT250=

USA.gov is the U.S. government's official web portal to all federal, state and local government web resources and services.